createdAt,value
2023-05-19T00:02:20.901Z,99869.19
2023-05-19T00:04:48.272Z,99871.44
2023-05-19T00:07:17.927Z,99873.44
2023-05-19T00:09:44.657Z,99869.38
2023-05-19T00:12:11.988Z,99870.16
2023-05-19T00:14:38.796Z,99866.19
2023-05-19T00:17:05.590Z,99861.19
2023-05-19T00:19:32.433Z,99861.47
2023-05-19T00:21:59.193Z,99859.06
2023-05-19T00:24:25.786Z,99855.34
2023-05-19T00:26:52.229Z,99852.44
2023-05-19T00:29:19.383Z,99856.03
2023-05-19T00:31:46.210Z,99845.31
2023-05-19T00:34:12.784Z,99844.56
2023-05-19T00:36:39.281Z,99845.22
2023-05-19T00:39:05.738Z,99845.56
2023-05-19T00:41:32.217Z,99840.75
2023-05-19T00:43:58.767Z,99843.47
2023-05-19T00:46:25.373Z,99852.78
2023-05-19T00:48:51.812Z,99847.56
2023-05-19T00:51:18.523Z,99847.56
2023-05-19T00:53:49.008Z,99853.41
2023-05-19T00:56:19.385Z,99846.03
2023-05-19T00:58:46.006Z,99850.72
2023-05-19T01:01:16.906Z,99850.72
2023-05-19T01:03:43.924Z,99852.19
2023-05-19T01:06:12.038Z,99844.78
2023-05-19T01:08:39.119Z,99849.63
2023-05-19T01:11:06.836Z,99848.22
2023-05-19T01:13:34.515Z,99842.28
2023-05-19T01:16:12.728Z,99842.44
2023-05-19T01:18:47.726Z,99848.31
2023-05-19T01:21:32.344Z,99838.91
2023-05-19T01:24:18.255Z,99831.34
2023-05-19T01:27:06.482Z,99838.78
2023-05-19T01:29:51.481Z,99839.69
2023-05-19T01:32:19.900Z,99834.53
2023-05-19T01:34:46.972Z,99839.81
2023-05-19T01:37:15.301Z,99840.25
2023-05-19T01:39:43.322Z,99836.59
2023-05-19T01:42:10.939Z,99837.03
2023-05-19T01:44:37.873Z,99842.47
2023-05-19T01:47:04.816Z,99840.44
2023-05-19T01:49:31.352Z,99845.19
2023-05-19T01:51:57.815Z,99842.19
2023-05-19T01:54:24.400Z,99849.34
2023-05-19T01:57:12.333Z,99846.63
2023-05-19T01:59:52.456Z,99843.16
2023-05-19T02:02:43.954Z,99843.97
2023-05-19T02:05:19.125Z,99837.69
2023-05-19T02:07:53.755Z,99837.97
2023-05-19T02:10:28.128Z,99839.72
2023-05-19T02:12:56.572Z,99840.09
2023-05-19T02:15:30.788Z,99836.72
2023-05-19T02:18:00.170Z,99841.44
2023-05-19T02:20:26.801Z,99836.72
2023-05-19T02:22:53.354Z,99840.13
2023-05-19T02:25:19.817Z,99840.13
2023-05-19T02:27:46.376Z,99834.44
2023-05-19T02:30:12.948Z,99831.81
2023-05-19T02:32:39.857Z,99839.22
2023-05-19T02:35:06.690Z,99833.03
2023-05-19T02:37:33.167Z,99828.50
2023-05-19T02:39:59.661Z,99834.16
2023-05-19T02:42:26.100Z,99826.75
2023-05-19T02:44:54.196Z,99824.81
2023-05-19T02:47:20.716Z,99832.69
2023-05-19T02:49:47.198Z,99828.88
2023-05-19T02:52:13.720Z,99827.72
2023-05-19T02:54:40.209Z,99825.97
2023-05-19T02:57:06.849Z,99827.03
2023-05-19T02:59:33.513Z,99831.50
2023-05-19T03:02:01.453Z,99837.75
2023-05-19T03:04:29.232Z,99830.81
2023-05-19T03:06:56.043Z,99826.09
2023-05-19T03:09:22.490Z,99824.50
2023-05-19T03:11:48.963Z,99822.19
2023-05-19T03:14:15.481Z,99830.34
2023-05-19T03:16:42.204Z,99837.59
2023-05-19T03:19:09.645Z,99830.16
2023-05-19T03:21:36.696Z,99837.31
2023-05-19T03:24:03.442Z,99835.59
2023-05-19T03:26:29.926Z,99836.03
2023-05-19T03:28:56.432Z,99832.09
2023-05-19T03:31:22.949Z,99832.91
2023-05-19T03:33:49.508Z,99835.25
2023-05-19T03:36:16.049Z,99836.19
2023-05-19T03:38:42.483Z,99832.22
2023-05-19T03:41:08.926Z,99833.16
2023-05-19T03:43:35.456Z,99833.47
2023-05-19T03:46:02.146Z,99839.59
2023-05-19T03:48:30.939Z,99845.00
2023-05-19T03:50:58.025Z,99851.31
2023-05-19T03:53:24.450Z,99847.75
2023-05-19T03:55:50.900Z,99856.03
2023-05-19T03:58:17.443Z,99851.94
2023-05-19T04:00:43.912Z,99854.50
2023-05-19T04:03:10.783Z,99855.81
2023-05-19T04:05:37.481Z,99853.47
2023-05-19T04:08:04.127Z,99857.03
2023-05-19T04:10:30.913Z,99852.09
2023-05-19T04:12:57.517Z,99866.41
2023-05-19T04:15:24.016Z,99861.19
2023-05-19T04:17:50.507Z,99863.91
2023-05-19T04:20:17.086Z,99867.50
2023-05-19T04:22:43.533Z,99861.69
2023-05-19T04:25:10.246Z,99868.84
2023-05-19T04:27:38.853Z,99859.50
2023-05-19T04:30:06.443Z,99855.75
2023-05-19T04:32:33.313Z,99855.09
2023-05-19T04:34:59.881Z,99848.53
2023-05-19T04:37:26.584Z,99847.06
2023-05-19T04:39:54.197Z,99844.25
2023-05-19T04:42:20.817Z,99839.03
2023-05-19T04:44:49.085Z,99853.50
2023-05-19T04:47:15.667Z,99857.16
2023-05-19T04:49:42.270Z,99843.75
2023-05-19T04:52:12.699Z,99853.81
2023-05-19T04:54:39.826Z,99838.09
2023-05-19T04:57:06.420Z,99849.00
2023-05-19T04:59:33.104Z,99846.75
2023-05-19T05:01:59.674Z,99842.75
2023-05-19T05:04:26.196Z,99846.25
2023-05-19T05:06:52.681Z,99845.75
2023-05-19T05:09:19.876Z,99850.38
2023-05-19T05:11:46.739Z,99845.34
2023-05-19T05:14:13.500Z,99843.56
2023-05-19T05:16:40.750Z,99849.25
2023-05-19T05:19:07.586Z,99840.19
2023-05-19T05:21:34.675Z,99834.47
2023-05-19T05:24:01.401Z,99838.31
2023-05-19T05:26:30.757Z,99836.44
2023-05-19T05:28:57.242Z,99845.06
2023-05-19T05:31:23.700Z,99847.41
2023-05-19T05:33:50.345Z,99839.75
2023-05-19T05:36:16.805Z,99843.38
2023-05-19T05:38:43.241Z,99843.78
2023-05-19T05:41:09.821Z,99840.03
2023-05-19T05:43:36.311Z,99840.09
2023-05-19T05:46:02.833Z,99833.88
2023-05-19T05:48:29.640Z,99831.75
2023-05-19T05:50:57.346Z,99827.31
2023-05-19T05:53:25.958Z,99819.78
2023-05-19T05:55:53.583Z,99821.47
2023-05-19T05:58:21.234Z,99827.91
2023-05-19T06:00:49.257Z,99822.06
2023-05-19T06:03:16.899Z,99824.31
2023-05-19T06:05:43.591Z,99821.00
2023-05-19T06:08:10.100Z,99820.72
2023-05-19T06:10:38.678Z,99824.09
2023-05-19T06:13:05.228Z,99814.81
2023-05-19T06:15:31.783Z,99821.03
2023-05-19T06:17:59.058Z,99819.19
2023-05-19T06:20:25.706Z,99811.31
2023-05-19T06:22:52.190Z,99810.81
2023-05-19T06:25:18.799Z,99813.56
2023-05-19T06:27:45.330Z,99813.66
2023-05-19T06:30:12.742Z,99809.09
2023-05-19T06:32:39.265Z,99809.50
2023-05-19T06:35:06.180Z,99815.44
2023-05-19T06:37:32.690Z,99808.91
2023-05-19T06:39:59.303Z,99811.38
2023-05-19T06:42:25.975Z,99812.13
2023-05-19T06:44:53.170Z,99807.44
2023-05-19T06:47:19.988Z,99814.63
2023-05-19T06:49:46.598Z,99807.53
2023-05-19T06:52:13.058Z,99813.88
2023-05-19T06:54:39.620Z,99810.41
2023-05-19T06:57:06.401Z,99814.50
2023-05-19T06:59:32.930Z,99814.44
2023-05-19T07:02:01.538Z,99808.03
2023-05-19T07:04:28.073Z,99807.41
2023-05-19T07:06:54.950Z,99806.59
2023-05-19T07:09:21.433Z,99803.16
2023-05-19T07:11:48.470Z,99811.28
2023-05-19T07:14:17.644Z,99813.31
2023-05-19T07:16:44.255Z,99806.09
2023-05-19T07:19:10.831Z,99802.25
2023-05-19T07:21:37.348Z,99795.13
2023-05-19T07:24:04.011Z,99795.56
2023-05-19T07:26:30.556Z,99794.31
2023-05-19T07:28:57.854Z,99805.41
2023-05-19T07:31:24.417Z,99800.91
2023-05-19T07:33:53.009Z,99800.31
2023-05-19T07:36:20.894Z,99798.16
2023-05-19T07:38:47.452Z,99799.34
2023-05-19T07:41:14.100Z,99808.03
2023-05-19T07:43:40.829Z,99804.34
2023-05-19T07:46:07.723Z,99805.91
2023-05-19T07:48:34.227Z,99810.22
2023-05-19T07:51:00.715Z,99804.25
2023-05-19T07:53:28.060Z,99803.63
2023-05-19T07:55:55.869Z,99804.34
2023-05-19T07:58:23.883Z,99811.34
2023-05-19T08:00:50.451Z,99802.72
2023-05-19T08:03:18.267Z,99808.78
2023-05-19T08:05:45.490Z,99805.31
2023-05-19T08:08:12.750Z,99810.03
2023-05-19T08:10:43.319Z,99802.47
2023-05-19T08:13:09.748Z,99807.44
2023-05-19T08:15:39.229Z,99806.53
2023-05-19T08:18:05.755Z,99803.75
2023-05-19T08:20:32.882Z,99802.97
2023-05-19T08:22:59.610Z,99788.84
2023-05-19T08:25:26.088Z,99790.28
2023-05-19T08:27:52.552Z,99783.00
2023-05-19T08:30:19.073Z,99788.72
2023-05-19T08:32:45.634Z,99785.75
2023-05-19T08:35:12.193Z,99779.34
2023-05-19T08:37:38.808Z,99767.63
2023-05-19T08:40:06.287Z,99768.09
2023-05-19T08:42:33.178Z,99758.38
2023-05-19T08:45:00.816Z,99756.59
2023-05-19T08:47:27.926Z,99753.09
2023-05-19T08:50:03.438Z,99755.53
2023-05-19T08:52:38.318Z,99760.00
2023-05-19T08:55:21.812Z,99752.97
2023-05-19T08:57:49.198Z,99754.56
2023-05-19T09:00:16.464Z,99744.25
2023-05-19T09:02:50.679Z,99733.50
2023-05-19T09:05:27.837Z,99734.81
2023-05-19T09:07:55.018Z,99740.50
2023-05-19T09:10:21.748Z,99739.59
2023-05-19T09:12:49.579Z,99743.78
2023-05-19T09:15:18.607Z,99735.56
2023-05-19T09:17:48.238Z,99725.16
2023-05-19T09:20:15.841Z,99739.28
2023-05-19T09:22:45.244Z,99731.34
2023-05-19T09:25:23.186Z,99717.84
2023-05-19T09:27:50.526Z,99723.06
2023-05-19T09:30:17.762Z,99718.75
2023-05-19T09:32:44.863Z,99719.69
2023-05-19T09:35:12.862Z,99717.91
2023-05-19T09:37:40.647Z,99726.03
2023-05-19T09:40:13.561Z,99718.78
2023-05-19T09:42:41.331Z,99712.28
2023-05-19T09:45:11.510Z,99731.44
2023-05-19T09:47:40.264Z,99715.03
2023-05-19T09:50:12.343Z,99721.34
2023-05-19T09:52:39.550Z,99720.06
2023-05-19T09:55:09.501Z,99719.88
2023-05-19T09:57:37.479Z,99722.25
2023-05-19T10:00:12.252Z,99718.28
2023-05-19T10:02:43.096Z,99711.50
2023-05-19T10:05:13.681Z,99709.41
2023-05-19T10:07:40.574Z,99706.66
2023-05-19T10:10:09.590Z,99714.25
2023-05-19T10:12:37.233Z,99691.84
2023-05-19T10:15:04.150Z,99702.03
2023-05-19T10:17:30.897Z,99697.19
2023-05-19T10:19:57.855Z,99703.50
2023-05-19T10:22:24.383Z,99699.72
2023-05-19T10:24:50.812Z,99688.16
2023-05-19T10:27:18.039Z,99691.44
2023-05-19T10:29:49.291Z,99677.91
2023-05-19T10:32:19.986Z,99688.28
2023-05-19T10:35:14.537Z,99689.38
2023-05-19T10:37:55.367Z,99681.22
2023-05-19T10:40:28.145Z,99679.69
2023-05-19T10:43:01.288Z,99677.03
2023-05-19T10:45:31.719Z,99680.53
2023-05-19T10:47:58.410Z,99678.09
2023-05-19T10:50:25.057Z,99664.75
2023-05-19T10:52:56.053Z,99681.06
2023-05-19T10:55:56.033Z,99684.53
2023-05-19T10:58:44.381Z,99680.91
2023-05-19T11:01:14.566Z,99668.28
2023-05-19T11:03:47.324Z,99677.13
2023-05-19T11:06:33.131Z,99674.22
2023-05-19T11:09:01.409Z,99668.41
2023-05-19T11:11:50.846Z,99669.31
2023-05-19T11:14:22.951Z,99668.25
2023-05-19T11:16:52.217Z,99663.47
2023-05-19T11:19:27.919Z,99662.31
2023-05-19T11:21:56.904Z,99662.16
2023-05-19T11:24:42.245Z,99661.25
2023-05-19T11:27:31.399Z,99654.56
2023-05-19T11:30:06.536Z,99665.25
2023-05-19T11:32:34.391Z,99653.84
2023-05-19T11:35:01.777Z,99644.56
2023-05-19T11:37:31.249Z,99646.25
2023-05-19T11:39:58.091Z,99638.78
2023-05-19T11:42:24.656Z,99640.78
2023-05-19T11:44:57.874Z,99629.63
2023-05-19T11:47:24.394Z,99634.25
2023-05-19T11:49:54.758Z,99636.09
2023-05-19T11:52:22.461Z,99620.53
2023-05-19T11:54:51.539Z,99639.34
2023-05-19T11:57:21.104Z,99625.75
2023-05-19T11:59:52.345Z,99625.16
2023-05-19T12:02:27.345Z,99626.81
2023-05-19T12:04:54.724Z,99615.53
2023-05-19T12:07:24.727Z,99636.28
2023-05-19T12:09:52.261Z,99629.25
2023-05-19T12:12:20.008Z,99625.78
2023-05-19T12:14:47.688Z,99620.78
2023-05-19T12:17:16.465Z,99617.31
2023-05-19T12:19:48.959Z,99607.97
2023-05-19T12:22:16.921Z,99619.34
2023-05-19T12:24:44.439Z,99619.47
2023-05-19T12:27:17.850Z,99624.28
2023-05-19T12:29:52.670Z,99622.94
2023-05-19T12:32:22.943Z,99616.63
2023-05-19T12:34:49.971Z,99610.84
2023-05-19T12:37:16.641Z,99608.19
2023-05-19T12:39:43.715Z,99616.88
2023-05-19T12:42:12.357Z,99597.78
2023-05-19T12:44:42.543Z,99609.09
2023-05-19T12:47:09.055Z,99600.38
2023-05-19T12:49:35.620Z,99598.25
2023-05-19T12:52:10.543Z,99601.88
2023-05-19T12:54:40.350Z,99595.97
2023-05-19T12:57:07.080Z,99596.16
2023-05-19T12:59:38.877Z,99594.69
2023-05-19T13:02:06.581Z,99594.22
2023-05-19T13:04:33.278Z,99593.56
2023-05-19T13:06:59.801Z,99596.78
2023-05-19T13:09:27.864Z,99591.72
2023-05-19T13:11:54.742Z,99586.59
2023-05-19T13:14:24.520Z,99589.09
2023-05-19T13:16:51.045Z,99578.13
2023-05-19T13:19:25.518Z,99572.59
2023-05-19T13:21:52.594Z,99577.13
2023-05-19T13:24:19.049Z,99576.28
2023-05-19T13:26:48.788Z,99575.28
2023-05-19T13:29:15.394Z,99576.78
2023-05-19T13:31:41.937Z,99574.22
2023-05-19T13:34:08.526Z,99571.63
2023-05-19T13:36:39.088Z,99574.81
2023-05-19T13:39:05.936Z,99567.31
2023-05-19T13:41:32.804Z,99576.63
2023-05-19T13:43:59.631Z,99574.16
2023-05-19T13:46:36.687Z,99571.38
2023-05-19T13:49:11.084Z,99567.09
2023-05-19T13:51:37.650Z,99566.75
2023-05-19T13:54:04.939Z,99560.94
2023-05-19T13:56:31.740Z,99544.56
2023-05-19T13:58:59.915Z,99553.38
2023-05-19T14:01:27.551Z,99558.13
2023-05-19T14:03:54.132Z,99551.38
2023-05-19T14:06:20.682Z,99552.03
2023-05-19T14:08:47.158Z,99550.44
2023-05-19T14:11:21.532Z,99564.94
2023-05-19T14:13:52.663Z,99562.72
2023-05-19T14:16:20.422Z,99552.28
2023-05-19T14:18:47.098Z,99556.75
2023-05-19T14:21:14.169Z,99565.72
2023-05-19T14:23:40.711Z,99559.81
2023-05-19T14:26:07.243Z,99558.69
2023-05-19T14:28:33.840Z,99551.66
2023-05-19T14:31:00.384Z,99558.69
2023-05-19T14:33:26.874Z,99557.91
2023-05-19T14:35:53.488Z,99552.88
2023-05-19T14:38:19.935Z,99561.63
2023-05-19T14:40:48.454Z,99558.28
2023-05-19T14:43:14.949Z,99548.50
2023-05-19T14:45:44.000Z,99555.28
2023-05-19T14:48:13.678Z,99549.34
2023-05-19T14:50:42.790Z,99538.78
2023-05-19T14:53:09.532Z,99548.34
2023-05-19T14:55:41.177Z,99532.81
2023-05-19T14:58:15.895Z,99540.59
2023-05-19T15:00:47.687Z,99543.31
2023-05-19T15:03:17.044Z,99538.59
2023-05-19T15:05:46.684Z,99550.53
2023-05-19T15:08:13.313Z,99550.09
2023-05-19T15:10:39.836Z,99547.09
2023-05-19T15:13:06.287Z,99547.31
2023-05-19T15:15:32.785Z,99537.88
2023-05-19T15:17:59.455Z,99538.56
2023-05-19T15:20:27.457Z,99543.22
2023-05-19T15:22:55.851Z,99545.19
2023-05-19T15:25:22.309Z,99541.72
2023-05-19T15:27:48.895Z,99546.03
2023-05-19T15:30:17.898Z,99539.31
2023-05-19T15:32:44.392Z,99547.00
2023-05-19T15:35:10.874Z,99547.13
2023-05-19T15:37:37.330Z,99539.97
2023-05-19T15:40:04.484Z,99541.88
2023-05-19T15:42:30.982Z,99535.78
2023-05-19T15:44:57.504Z,99534.75
2023-05-19T15:47:23.946Z,99527.84
2023-05-19T15:49:50.380Z,99538.19
2023-05-19T15:52:16.976Z,99543.50
2023-05-19T15:54:44.764Z,99542.22
2023-05-19T15:57:11.297Z,99541.31
2023-05-19T15:59:37.849Z,99548.09
2023-05-19T16:02:04.420Z,99548.94
2023-05-19T16:04:33.871Z,99540.00
2023-05-19T16:07:00.400Z,99542.38
2023-05-19T16:09:27.989Z,99540.78
2023-05-19T16:11:58.338Z,99537.22
2023-05-19T16:14:27.497Z,99544.66
2023-05-19T16:16:54.044Z,99545.72
2023-05-19T16:19:23.966Z,99536.94
2023-05-19T16:21:53.352Z,99533.53
2023-05-19T16:24:19.821Z,99537.72
2023-05-19T16:26:46.418Z,99535.66
2023-05-19T16:29:18.347Z,99527.25
2023-05-19T16:31:50.368Z,99529.75
2023-05-19T16:34:16.869Z,99521.09
2023-05-19T16:36:43.349Z,99527.38
2023-05-19T16:39:09.896Z,99525.16
2023-05-19T16:41:36.649Z,99521.53
2023-05-19T16:44:03.188Z,99524.44
2023-05-19T16:46:31.484Z,99520.56
2023-05-19T16:48:58.226Z,99517.97
2023-05-19T16:51:24.711Z,99514.28
2023-05-19T16:53:51.222Z,99519.72
2023-05-19T16:56:17.723Z,99523.47
2023-05-19T16:58:44.264Z,99520.13
2023-05-19T17:01:11.905Z,99520.16
2023-05-19T17:03:38.413Z,99526.91
2023-05-19T17:06:04.916Z,99523.91
2023-05-19T17:08:31.421Z,99521.75
2023-05-19T17:10:57.856Z,99532.06
2023-05-19T17:13:24.368Z,99530.06
2023-05-19T17:15:52.563Z,99532.75
2023-05-19T17:18:19.342Z,99526.44
2023-05-19T17:20:45.815Z,99532.34
2023-05-19T17:23:12.642Z,99533.09
2023-05-19T17:25:39.090Z,99530.06
2023-05-19T17:28:07.496Z,99530.84
2023-05-19T17:30:34.727Z,99524.00
2023-05-19T17:33:01.454Z,99525.72
2023-05-19T17:35:28.607Z,99526.88
2023-05-19T17:37:55.490Z,99529.78
2023-05-19T17:40:22.053Z,99532.88
2023-05-19T17:42:48.654Z,99535.63
2023-05-19T17:45:15.372Z,99536.44
2023-05-19T17:47:41.878Z,99536.47
2023-05-19T17:50:09.046Z,99538.34
2023-05-19T17:52:36.139Z,99546.75
2023-05-19T17:55:03.032Z,99546.50
2023-05-19T17:57:30.980Z,99545.06
2023-05-19T17:59:57.721Z,99545.09
2023-05-19T18:02:24.445Z,99545.69
2023-05-19T18:04:51.083Z,99543.38
2023-05-19T18:07:18.548Z,99536.44
2023-05-19T18:09:46.386Z,99544.41
2023-05-19T18:12:12.876Z,99542.66
2023-05-19T18:14:39.620Z,99547.63
2023-05-19T18:17:06.172Z,99548.41
2023-05-19T18:19:32.638Z,99549.13
2023-05-19T18:21:59.155Z,99545.13
2023-05-19T18:24:25.726Z,99551.19
2023-05-19T18:26:52.176Z,99539.16
2023-05-19T18:29:18.669Z,99546.09
2023-05-19T18:31:45.229Z,99543.97
2023-05-19T18:34:12.150Z,99541.59
2023-05-19T18:36:38.644Z,99540.50
2023-05-19T18:39:05.130Z,99549.13
2023-05-19T18:41:32.027Z,99548.75
2023-05-19T18:44:01.368Z,99542.03
2023-05-19T18:46:28.029Z,99553.91
2023-05-19T18:48:54.573Z,99552.91
2023-05-19T18:51:21.755Z,99544.19
2023-05-19T18:53:50.065Z,99538.34
2023-05-19T18:56:25.072Z,99538.03
2023-05-19T18:58:52.273Z,99542.16
2023-05-19T19:01:18.850Z,99541.81
2023-05-19T19:03:48.365Z,99544.50
2023-05-19T19:06:17.204Z,99547.06
2023-05-19T19:08:44.384Z,99546.28
2023-05-19T19:11:11.316Z,99559.28
2023-05-19T19:13:38.323Z,99555.91
2023-05-19T19:16:05.185Z,99558.97
2023-05-19T19:18:31.774Z,99557.41
2023-05-19T19:20:59.619Z,99555.59
2023-05-19T19:23:26.135Z,99555.59
2023-05-19T19:25:53.378Z,99543.31
2023-05-19T19:28:19.848Z,99544.19
2023-05-19T19:30:46.475Z,99552.75
2023-05-19T19:33:13.010Z,99550.97
2023-05-19T19:35:39.628Z,99555.19
2023-05-19T19:38:06.119Z,99560.66
2023-05-19T19:40:35.766Z,99556.09
2023-05-19T19:43:02.378Z,99550.66
2023-05-19T19:45:28.866Z,99556.59
2023-05-19T19:47:55.477Z,99554.25
2023-05-19T19:50:22.011Z,99549.72
2023-05-19T19:52:48.542Z,99543.47
2023-05-19T19:55:18.089Z,99552.81
2023-05-19T19:57:47.057Z,99551.22
2023-05-19T20:00:14.124Z,99549.53
2023-05-19T20:02:51.697Z,99554.59
2023-05-19T20:05:27.258Z,99550.25
2023-05-19T20:07:54.009Z,99549.59
2023-05-19T20:10:23.266Z,99553.03
2023-05-19T20:12:50.587Z,99554.59
2023-05-19T20:15:17.279Z,99559.56
2023-05-19T20:17:46.073Z,99554.25
2023-05-19T20:20:13.044Z,99563.03
2023-05-19T20:22:39.592Z,99557.94
2023-05-19T20:25:06.539Z,99563.66
2023-05-19T20:27:35.770Z,99557.53
2023-05-19T20:30:02.267Z,99561.06
2023-05-19T20:32:28.796Z,99558.44
2023-05-19T20:34:55.551Z,99554.03
2023-05-19T20:37:22.337Z,99554.03
2023-05-19T20:39:48.907Z,99554.84
2023-05-19T20:42:15.436Z,99554.59
2023-05-19T20:44:42.677Z,99555.28
2023-05-19T20:47:09.173Z,99561.28
2023-05-19T20:49:35.967Z,99561.13
2023-05-19T20:52:02.452Z,99559.53
2023-05-19T20:54:28.975Z,99557.75
2023-05-19T20:56:55.555Z,99557.34
2023-05-19T20:59:22.046Z,99553.00
2023-05-19T21:01:48.660Z,99552.88
2023-05-19T21:04:15.289Z,99550.66
2023-05-19T21:06:41.817Z,99554.75
2023-05-19T21:09:08.684Z,99555.47
2023-05-19T21:11:35.539Z,99559.88
2023-05-19T21:14:04.858Z,99553.78
2023-05-19T21:16:31.876Z,99561.25
2023-05-19T21:18:58.504Z,99555.97
2023-05-19T21:21:25.313Z,99558.22
2023-05-19T21:23:51.949Z,99559.53
2023-05-19T21:26:18.407Z,99554.78
2023-05-19T21:28:44.921Z,99564.06
2023-05-19T21:31:11.539Z,99567.47
2023-05-19T21:33:39.638Z,99568.31
2023-05-19T21:36:06.372Z,99559.56
2023-05-19T21:38:32.900Z,99556.69
2023-05-19T21:40:59.402Z,99564.06
2023-05-19T21:43:25.989Z,99558.38
2023-05-19T21:45:52.556Z,99556.81
2023-05-19T21:48:19.220Z,99553.41
2023-05-19T21:50:45.738Z,99554.16
2023-05-19T21:53:12.194Z,99556.00
2023-05-19T21:55:39.338Z,99550.00
2023-05-19T21:58:08.424Z,99556.22
2023-05-19T22:00:36.682Z,99552.72
2023-05-19T22:03:03.532Z,99555.34
2023-05-19T22:05:33.788Z,99555.19
2023-05-19T22:08:00.232Z,99558.78
2023-05-19T22:10:26.723Z,99550.94
2023-05-19T22:12:53.179Z,99543.78
2023-05-19T22:15:19.698Z,99535.16
2023-05-19T22:17:46.234Z,99541.91
2023-05-19T22:20:12.912Z,99535.09
2023-05-19T22:22:39.359Z,99538.34
2023-05-19T22:25:07.041Z,99535.84
2023-05-19T22:27:33.584Z,99535.25
2023-05-19T22:30:00.043Z,99527.97
2023-05-19T22:32:26.664Z,99527.25
2023-05-19T22:34:53.229Z,99535.88
2023-05-19T22:37:23.996Z,99535.94
2023-05-19T22:39:51.131Z,99532.22
2023-05-19T22:42:18.477Z,99521.31
2023-05-19T22:44:45.787Z,99523.97
2023-05-19T22:47:15.397Z,99518.78
2023-05-19T22:49:42.396Z,99524.94
2023-05-19T22:52:12.659Z,99522.28
2023-05-19T22:54:39.471Z,99521.88
2023-05-19T22:57:06.339Z,99521.41
2023-05-19T22:59:32.995Z,99518.66
2023-05-19T23:01:59.490Z,99523.59
2023-05-19T23:04:28.942Z,99516.56
2023-05-19T23:06:55.661Z,99514.63
2023-05-19T23:09:22.170Z,99517.94
2023-05-19T23:11:48.716Z,99514.53
2023-05-19T23:14:15.283Z,99504.97
2023-05-19T23:16:41.826Z,99512.00
2023-05-19T23:19:08.324Z,99508.66
2023-05-19T23:21:36.313Z,99510.25
2023-05-19T23:24:02.840Z,99505.88
2023-05-19T23:26:29.303Z,99493.56
2023-05-19T23:28:58.578Z,99497.06
2023-05-19T23:31:25.235Z,99498.81
2023-05-19T23:33:51.747Z,99486.63
2023-05-19T23:36:19.119Z,99485.66
2023-05-19T23:38:45.718Z,99490.00
2023-05-19T23:41:12.212Z,99488.00
2023-05-19T23:43:39.271Z,99487.25
2023-05-19T23:46:08.815Z,99477.47
2023-05-19T23:48:36.521Z,99472.63
2023-05-19T23:51:03.109Z,99470.63
2023-05-19T23:53:32.881Z,99473.66
2023-05-19T23:55:59.322Z,99476.78
2023-05-19T23:58:25.932Z,99476.09
